createdAt,value
2022-09-20T00:01:33.678Z,99.90
2022-09-20T00:04:04.536Z,99.90
2022-09-20T00:06:32.937Z,99.90
2022-09-20T00:09:00.761Z,99.90
2022-09-20T00:11:32.166Z,99.90
2022-09-20T00:14:02.135Z,99.90
2022-09-20T00:16:34.327Z,99.90
2022-09-20T00:19:04.518Z,99.90
2022-09-20T00:21:35.647Z,99.90
2022-09-20T00:24:03.753Z,99.90
2022-09-20T00:26:30.883Z,99.90
2022-09-20T00:28:59.119Z,99.90
2022-09-20T00:31:26.952Z,99.90
2022-09-20T00:33:56.277Z,99.90
2022-09-20T00:36:23.920Z,99.90
2022-09-20T00:39:00.504Z,99.90
2022-09-20T00:41:30.912Z,99.90
2022-09-20T00:43:59.639Z,99.90
2022-09-20T00:46:37.612Z,99.90
2022-09-20T00:49:27.905Z,99.90
2022-09-20T00:52:02.257Z,99.90
2022-09-20T00:54:31.593Z,99.90
2022-09-20T00:56:58.799Z,99.90
2022-09-20T00:59:36.303Z,99.90
2022-09-20T01:02:12.389Z,99.90
2022-09-20T01:04:43.259Z,99.90
2022-09-20T01:07:15.574Z,99.90
2022-09-20T01:09:42.815Z,99.90
2022-09-20T01:12:16.213Z,99.90
2022-09-20T01:14:47.245Z,99.90
2022-09-20T01:17:16.091Z,99.90
2022-09-20T01:20:06.233Z,99.90
2022-09-20T01:23:19.717Z,99.90
2022-09-20T01:26:07.915Z,99.90
2022-09-20T01:28:36.466Z,99.90
2022-09-20T01:31:15.667Z,99.90
2022-09-20T01:34:01.927Z,99.90
2022-09-20T01:36:49.453Z,99.90
2022-09-20T01:39:49.138Z,99.90
2022-09-20T01:42:16.638Z,99.90
2022-09-20T01:45:40.814Z,99.90
2022-09-20T01:48:18.982Z,99.90
2022-09-20T01:51:23.412Z,99.90
2022-09-20T01:54:47.649Z,99.90
2022-09-20T01:57:39.113Z,99.90
2022-09-20T02:00:26.280Z,99.90
2022-09-20T02:03:18.216Z,99.90
2022-09-20T02:06:08.552Z,99.90
2022-09-20T02:09:06.260Z,99.90
2022-09-20T02:12:37.145Z,99.90
2022-09-20T02:15:33.753Z,99.90
2022-09-20T02:18:12.921Z,99.90
2022-09-20T02:21:08.571Z,99.90
2022-09-20T02:24:17.971Z,99.90
2022-09-20T02:27:12.085Z,99.90
2022-09-20T02:30:05.062Z,99.90
2022-09-20T02:33:09.110Z,99.90
2022-09-20T02:36:30.783Z,99.90
2022-09-20T02:39:36.307Z,99.90
2022-09-20T02:42:15.657Z,99.90
2022-09-20T02:45:16.163Z,99.90
2022-09-20T02:47:44.419Z,99.90
2022-09-20T02:51:00.399Z,99.90
2022-09-20T02:54:20.122Z,99.90
2022-09-20T02:57:14.125Z,99.90
2022-09-20T02:59:54.793Z,99.90
2022-09-20T03:02:59.043Z,99.90
2022-09-20T03:06:05.025Z,99.90
2022-09-20T03:08:54.107Z,99.90
2022-09-20T03:12:26.645Z,99.90
2022-09-20T03:15:19.826Z,99.90
2022-09-20T03:18:31.376Z,99.90
2022-09-20T03:21:27.989Z,99.90
2022-09-20T03:24:19.406Z,99.90
2022-09-20T03:27:25.944Z,99.90
2022-09-20T03:30:35.345Z,99.90
2022-09-20T03:33:40.443Z,99.90
2022-09-20T03:36:34.648Z,99.90
2022-09-20T03:39:37.774Z,99.90
2022-09-20T03:42:23.173Z,99.90
2022-09-20T03:45:04.025Z,99.90
2022-09-20T03:48:11.375Z,99.90
2022-09-20T09:55:05.494Z,83.90
2022-09-20T09:58:05.954Z,84.20
2022-09-20T10:00:34.443Z,83.30
2022-09-20T10:03:04.415Z,83.10
2022-09-20T10:05:40.527Z,83.30
2022-09-20T10:09:14.230Z,83.30
2022-09-20T10:11:59.794Z,83.00
2022-09-20T10:15:22.647Z,82.10
2022-09-20T10:18:47.215Z,81.20
2022-09-20T10:21:54.452Z,80.70
2022-09-20T10:25:03.191Z,78.80
2022-09-20T10:27:58.619Z,78.00
2022-09-20T10:31:03.775Z,77.90
2022-09-20T10:34:06.298Z,76.20
2022-09-20T10:37:01.138Z,75.90
2022-09-20T10:39:39.376Z,73.50
2022-09-20T10:42:50.087Z,70.30
2022-09-20T10:46:08.739Z,67.70
2022-09-20T10:49:15.396Z,67.10
2022-09-20T10:52:09.174Z,62.60
2022-09-20T10:55:00.241Z,61.70
2022-09-20T10:58:11.419Z,61.40
2022-09-20T11:01:17.238Z,58.70
2022-09-20T11:04:07.853Z,58.20
2022-09-20T11:06:55.451Z,58.70
2022-09-20T11:09:37.248Z,58.70
2022-09-20T11:12:29.602Z,59.10
2022-09-20T11:15:14.646Z,59.20
2022-09-20T11:17:55.555Z,58.90
2022-09-20T11:20:41.447Z,59.60
2022-09-20T11:23:22.562Z,57.40
2022-09-20T11:25:58.584Z,58.70
2022-09-20T11:28:37.696Z,59.40
2022-09-20T11:31:24.928Z,59.20
2022-09-20T11:34:03.495Z,58.80
2022-09-20T11:36:59.797Z,58.40
2022-09-20T11:39:45.915Z,57.10
2022-09-20T11:42:22.488Z,56.00
2022-09-20T11:44:50.717Z,54.50
2022-09-20T11:47:42.706Z,54.20
2022-09-20T11:50:51.322Z,53.10
2022-09-20T11:53:55.633Z,51.10
2022-09-20T11:56:27.796Z,52.40
2022-09-20T11:59:23.093Z,51.20
2022-09-20T12:01:57.648Z,52.30
2022-09-20T12:04:33.274Z,53.20
2022-09-20T12:07:27.003Z,53.20
2022-09-20T12:10:02.412Z,53.60
2022-09-20T12:12:40.002Z,54.80
2022-09-20T12:15:34.755Z,53.90
2022-09-20T12:18:27.627Z,56.30
2022-09-20T12:21:16.301Z,55.50
2022-09-20T12:24:17.091Z,55.80
2022-09-20T12:26:46.601Z,53.80
2022-09-20T12:29:25.890Z,55.50
2022-09-20T12:32:54.802Z,54.30
2022-09-20T12:35:37.077Z,54.30
2022-09-20T12:38:31.749Z,53.90
2022-09-20T12:41:14.010Z,56.20
2022-09-20T12:44:06.104Z,55.10
2022-09-20T12:46:50.832Z,55.80
2022-09-20T12:49:28.292Z,55.70
2022-09-20T12:51:55.670Z,56.30
2022-09-20T12:54:22.924Z,56.30
2022-09-20T12:56:50.098Z,55.40
2022-09-20T12:59:26.563Z,55.40
2022-09-20T13:01:53.737Z,55.60
2022-09-20T13:04:53.808Z,55.80
2022-09-20T13:07:47.974Z,55.50
2022-09-20T13:10:30.496Z,56.30
2022-09-20T13:13:15.478Z,56.10
2022-09-20T13:15:50.539Z,54.60
2022-09-20T13:18:20.143Z,56.00
2022-09-20T13:20:47.833Z,55.00
2022-09-20T13:23:25.108Z,55.00
2022-09-20T13:25:55.465Z,54.90
2022-09-20T13:28:35.053Z,55.60
2022-09-20T13:31:20.803Z,55.30
2022-09-20T13:33:48.865Z,55.60
2022-09-20T13:36:26.421Z,54.80
2022-09-20T13:38:56.996Z,55.90
2022-09-20T13:41:28.820Z,55.40
2022-09-20T13:43:56.359Z,56.20
2022-09-20T13:46:31.129Z,56.50
2022-09-20T13:49:17.716Z,57.40
2022-09-20T13:51:45.526Z,57.90
2022-09-20T13:54:27.945Z,56.60
2022-09-20T13:57:00.812Z,56.60
2022-09-20T13:59:40.538Z,56.70
2022-09-20T14:02:24.284Z,57.40
2022-09-20T14:04:55.742Z,54.80
2022-09-20T14:07:24.695Z,55.70
2022-09-20T14:09:52.581Z,55.90
2022-09-20T14:12:21.552Z,55.20
2022-09-20T14:14:51.021Z,55.80
2022-09-20T14:17:22.015Z,55.80
2022-09-20T14:19:53.321Z,56.00
2022-09-20T14:22:29.994Z,54.10
2022-09-20T14:25:14.135Z,54.10
2022-09-20T14:27:41.373Z,54.50
2022-09-20T14:30:31.981Z,55.10
2022-09-20T14:33:00.102Z,55.40
2022-09-20T14:35:27.634Z,56.20
2022-09-20T14:38:08.426Z,56.70
2022-09-20T14:40:42.940Z,58.20
2022-09-20T14:43:24.154Z,58.20
2022-09-20T14:46:01.871Z,58.60
2022-09-20T14:48:39.541Z,58.40
2022-09-20T14:51:17.635Z,58.40
2022-09-20T14:54:10.876Z,58.80
2022-09-20T14:56:48.553Z,58.60
2022-09-20T14:59:18.542Z,58.50
2022-09-20T15:02:02.591Z,59.20
2022-09-20T15:04:31.171Z,59.50
2022-09-20T15:07:07.383Z,59.40
2022-09-20T15:09:34.921Z,60.20
2022-09-20T15:12:13.095Z,60.60
2022-09-20T15:14:40.446Z,60.30
2022-09-20T15:19:41.400Z,61.00
2022-09-20T15:22:12.493Z,61.90
2022-09-20T15:24:39.999Z,63.60
2022-09-20T15:27:07.873Z,63.40
2022-09-20T15:29:34.997Z,61.90
2022-09-20T15:32:02.429Z,60.60
2022-09-20T15:34:29.572Z,60.80
2022-09-20T15:36:56.703Z,61.70
2022-09-20T15:39:23.868Z,60.70
2022-09-20T15:41:54.213Z,59.20
2022-09-20T15:44:21.590Z,59.20
2022-09-20T15:46:51.320Z,59.80
2022-09-20T15:49:19.048Z,60.90
2022-09-20T15:51:46.169Z,61.90
2022-09-20T15:54:15.209Z,61.80
2022-09-20T15:56:42.782Z,63.30
2022-09-20T15:59:12.105Z,63.50
2022-09-20T16:01:43.243Z,63.80
2022-09-20T16:04:19.640Z,65.90
2022-09-20T16:06:50.059Z,66.50
2022-09-20T16:09:18.507Z,68.30
2022-09-20T16:11:47.383Z,66.50
2022-09-20T16:14:15.267Z,67.70
2022-09-20T16:16:42.956Z,70.10
2022-09-20T16:19:11.673Z,70.80
2022-09-20T16:21:42.222Z,73.50
2022-09-20T16:24:10.143Z,76.40
2022-09-20T16:26:37.591Z,76.00
2022-09-20T16:29:05.918Z,75.80
2022-09-20T16:31:44.705Z,77.80
2022-09-20T16:34:21.904Z,77.30
2022-09-20T16:36:52.437Z,78.60
2022-09-20T16:39:21.765Z,78.90
2022-09-20T16:41:49.373Z,77.60
2022-09-20T16:44:16.665Z,81.70
2022-09-20T16:46:43.917Z,79.20
2022-09-20T16:49:12.209Z,80.10
2022-09-20T16:51:44.674Z,81.20
2022-09-20T16:54:17.951Z,82.00
2022-09-20T16:56:48.426Z,80.40
2022-09-20T16:59:19.174Z,81.50
2022-09-20T17:01:47.179Z,87.10
2022-09-20T17:04:15.502Z,85.90
2022-09-20T17:06:42.695Z,86.60
2022-09-20T17:09:10.405Z,89.90
2022-09-20T17:11:44.688Z,87.10
2022-09-20T17:14:14.177Z,87.60
2022-09-20T17:16:42.217Z,89.40
2022-09-20T17:19:14.493Z,90.50
2022-09-20T17:21:45.086Z,90.00
2022-09-20T17:24:12.767Z,90.30
2022-09-20T17:26:43.176Z,90.20
2022-09-20T17:29:14.181Z,90.70
2022-09-20T17:31:51.493Z,91.10
2022-09-20T17:34:21.058Z,91.10
2022-09-20T17:36:51.517Z,91.60
2022-09-20T17:39:19.247Z,92.40
2022-09-20T17:41:49.304Z,92.90
2022-09-20T17:44:17.597Z,93.10
2022-09-20T17:46:47.754Z,92.40
2022-09-20T17:49:21.189Z,93.10
2022-09-20T17:51:54.633Z,94.60
2022-09-20T17:54:23.707Z,94.00
2022-09-20T17:56:53.677Z,93.90
2022-09-20T17:59:21.436Z,94.60
2022-09-20T18:01:52.216Z,95.00
2022-09-20T18:04:20.111Z,95.20
2022-09-20T18:06:51.351Z,95.80
2022-09-20T18:09:22.623Z,95.80
2022-09-20T18:11:53.043Z,96.20
2022-09-20T18:14:25.497Z,96.60
2022-09-20T18:16:55.607Z,96.60
2022-09-20T18:19:23.054Z,97.00
2022-09-20T18:21:50.981Z,97.40
2022-09-20T18:24:18.162Z,97.60
2022-09-20T18:26:45.840Z,97.30
2022-09-20T18:29:17.061Z,97.30
2022-09-20T18:31:53.748Z,97.50
2022-09-20T18:34:26.784Z,97.10
2022-09-20T18:36:57.788Z,97.30
2022-09-20T18:39:28.427Z,97.60
2022-09-20T18:41:56.442Z,97.70
2022-09-20T18:44:24.429Z,97.80
2022-09-20T18:46:51.939Z,97.80
2022-09-20T18:49:19.125Z,98.30
2022-09-20T18:51:46.429Z,97.70
2022-09-20T18:54:14.293Z,97.80
2022-09-20T18:56:44.469Z,97.90
2022-09-20T18:59:24.354Z,98.60
2022-09-20T19:02:02.670Z,98.80
2022-09-20T19:05:03.214Z,98.80
2022-09-20T19:08:06.134Z,98.80
2022-09-20T19:10:48.409Z,99.30
2022-09-20T19:14:11.876Z,99.10
2022-09-20T19:16:39.108Z,99.40
2022-09-20T19:19:46.003Z,99.50
2022-09-20T19:22:31.547Z,99.30
2022-09-20T19:25:25.979Z,99.50
2022-09-20T19:27:53.486Z,99.90
2022-09-20T19:30:21.428Z,99.90
2022-09-20T19:32:49.127Z,99.90
2022-09-20T19:35:37.654Z,99.90
2022-09-20T19:38:13.844Z,99.90
2022-09-20T19:41:14.169Z,99.90
2022-09-20T19:43:56.296Z,99.90
2022-09-20T19:47:01.579Z,99.90
2022-09-20T19:50:00.801Z,99.90
2022-09-20T19:52:28.792Z,99.90
2022-09-20T19:54:56.760Z,99.90
2022-09-20T19:57:39.043Z,99.90
2022-09-20T20:00:09.374Z,99.90
2022-09-20T20:02:37.263Z,99.90
2022-09-20T20:05:05.112Z,99.90
2022-09-20T20:07:54.589Z,99.90
2022-09-20T20:10:30.555Z,99.90
2022-09-20T20:13:18.856Z,99.90
2022-09-20T20:15:58.672Z,99.90
2022-09-20T20:19:00.928Z,99.90
2022-09-20T20:21:50.249Z,99.90
2022-09-20T20:24:45.811Z,99.90
2022-09-20T20:27:13.066Z,99.90
2022-09-20T20:29:40.287Z,99.90
2022-09-20T20:32:07.711Z,99.90
2022-09-20T20:34:34.978Z,99.90
2022-09-20T20:37:02.365Z,99.90
2022-09-20T20:39:30.682Z,99.90
2022-09-20T20:42:03.165Z,99.90
2022-09-20T20:44:34.480Z,99.90
2022-09-20T20:47:04.040Z,99.90
2022-09-20T20:49:31.344Z,99.90
2022-09-20T20:51:59.145Z,99.90
2022-09-20T20:54:26.533Z,99.90
2022-09-20T20:56:53.667Z,99.90
2022-09-20T20:59:21.006Z,99.90
2022-09-20T21:01:48.356Z,99.90
2022-09-20T21:04:15.536Z,99.90
2022-09-20T21:06:43.035Z,99.90
2022-09-20T21:09:11.321Z,99.90
2022-09-20T21:11:41.225Z,99.90
2022-09-20T21:14:08.312Z,99.90
2022-09-20T21:16:39.165Z,99.90
2022-09-20T21:19:06.709Z,99.90
2022-09-20T21:21:37.895Z,99.90
2022-09-20T21:24:08.710Z,99.90
2022-09-20T21:26:37.668Z,99.90
2022-09-20T21:29:15.007Z,99.90
2022-09-20T21:31:45.583Z,99.90
2022-09-20T21:34:15.311Z,99.90
2022-09-20T21:36:43.975Z,99.90
2022-09-20T21:39:11.888Z,99.90
2022-09-20T21:41:39.997Z,99.90
2022-09-20T21:44:08.613Z,99.90
2022-09-20T21:46:42.022Z,99.90
2022-09-20T21:49:12.285Z,99.90
2022-09-20T21:51:42.118Z,99.90
2022-09-20T21:54:09.976Z,99.90
2022-09-20T21:56:39.659Z,99.90
2022-09-20T21:59:06.904Z,99.90
2022-09-20T22:01:38.796Z,99.90
2022-09-20T22:04:12.083Z,99.90
2022-09-20T22:06:43.065Z,99.90
2022-09-20T22:09:16.697Z,99.90
2022-09-20T22:11:48.916Z,99.90
2022-09-20T22:14:18.720Z,99.90
2022-09-20T22:16:48.421Z,99.90
2022-09-20T22:19:18.076Z,99.90
2022-09-20T22:21:48.682Z,99.90
2022-09-20T22:24:16.953Z,99.90
2022-09-20T22:26:51.486Z,99.90
2022-09-20T22:29:19.246Z,99.90
2022-09-20T22:31:48.282Z,99.90
2022-09-20T22:34:21.376Z,99.90
2022-09-20T22:36:49.333Z,99.90
2022-09-20T22:39:17.076Z,99.90
2022-09-20T22:41:44.863Z,99.90
2022-09-20T22:44:12.425Z,99.90
2022-09-20T22:46:40.187Z,99.90
2022-09-20T22:49:09.367Z,99.90
2022-09-20T22:51:37.820Z,99.90
2022-09-20T22:54:09.542Z,99.90
2022-09-20T22:56:38.344Z,99.90
2022-09-20T22:59:10.522Z,99.90
2022-09-20T23:01:41.850Z,99.90
2022-09-20T23:04:13.743Z,99.90
2022-09-20T23:06:46.017Z,99.90
2022-09-20T23:09:15.835Z,99.90
2022-09-20T23:11:43.862Z,99.90
2022-09-20T23:14:14.663Z,99.90
2022-09-20T23:16:42.988Z,99.90
2022-09-20T23:19:11.630Z,99.90
2022-09-20T23:21:41.093Z,99.90
2022-09-20T23:24:11.814Z,99.90
2022-09-20T23:26:41.295Z,99.90
2022-09-20T23:29:16.924Z,99.90
2022-09-20T23:31:46.923Z,99.90
2022-09-20T23:34:16.704Z,99.90
2022-09-20T23:36:45.384Z,99.90
2022-09-20T23:39:13.412Z,99.90
2022-09-20T23:41:41.377Z,99.90
2022-09-20T23:44:09.526Z,99.90
2022-09-20T23:46:37.639Z,99.90
2022-09-20T23:49:05.535Z,99.90
2022-09-20T23:51:32.880Z,99.90
2022-09-20T23:54:00.122Z,99.90
2022-09-20T23:56:27.296Z,99.90
2022-09-20T23:58:54.859Z,99.90
